Terminal Aerodrome Forecast
Issued by NWS

Home | Current Version | Previous Version | Text Only | Print | Product List | Glossary On
Versions: 1 2 3 4 5 6 7 8 9 10 11 12 13 14 15 16 17 18 19 20 21 22 23 24 25 26 27 28 29 30 31 32 33 34 35 36 37 38
000
FTUS41 KBOX 152331
TAFACK
TAF
KACK 152331Z 1600/1624 00000KT 1/2SM SN OVC004
     FM160500 31010KT 2SM -SN OVC008
     FM160600 31010KT 6SM -SN OVC015
     FM160800 30013G21KT P6SM BKN025
     FM161000 29017G24KT P6SM SCT250
     FM162100 28017G32KT P6SM FEW250=

USA.gov is the U.S. government's official web portal to all federal, state and local government web resources and services.